Time;durP1;ratioP1;P1;durP2;ratioP2;P2;SDS_P1;SDS_P2;PMS_P1;PMS_P2;Temp;Humidity;BMP_temperature;BMP_pressure;BME280_temperature;BME280_humidity;BME280_pressure;Samples;Min_cycle;Max_cycle;Signal;HPM_P1;HPM_P2
2021/12/19 00:02:09;;;;;;;2.20;2.00;;;;;;;;;;5149824;27;20249;-64
2021/12/19 00:11:06;;;;;;;2.10;2.00;;;;;;;;;;5149220;27;20244;-64
2021/12/19 00:13:52;;;;;;;2.17;2.07;;;;;;;;;;5146831;27;20508;-63
2021/12/19 00:16:41;;;;;;;1.87;1.77;;;;;;;;;;5147427;27;20209;-64
2021/12/19 00:19:28;;;;;;;2.03;1.93;;;;;;;;;;5130655;27;20219;-65
2021/12/19 00:22:15;;;;;;;2.07;1.97;;;;;;;;;;5153818;27;20736;-64
2021/12/19 00:25:01;;;;;;;2.13;2.03;;;;;;;;;;5149333;27;20732;-64
2021/12/19 00:27:48;;;;;;;1.97;1.87;;;;;;;;;;5134321;27;20676;-64
2021/12/19 00:30:35;;;;;;;1.90;1.80;;;;;;;;;;5153420;27;20254;-64
2021/12/19 00:33:24;;;;;;;1.73;1.63;;;;;;;;;;5150451;27;20270;-64
2021/12/19 00:36:13;;;;;;;2.27;1.90;;;;;;;;;;5163374;27;20285;-64
2021/12/19 00:39:00;;;;;;;1.53;1.53;;;;;;;;;;5151890;27;20229;-64
2021/12/19 00:41:52;;;;;;;1.93;1.83;;;;;;;;;;5149584;27;20201;-64
2021/12/19 00:44:41;;;;;;;2.30;2.10;;;;;;;;;;5168931;27;20357;-64
2021/12/19 00:47:27;;;;;;;1.67;1.57;;;;;;;;;;5157347;27;20223;-64
2021/12/19 00:50:16;;;;;;;1.90;1.80;;;;;;;;;;5158472;27;20196;-64
2021/12/19 00:53:03;;;;;;;1.80;1.70;;;;;;;;;;5166125;27;20205;-63
2021/12/19 00:55:50;;;;;;;1.80;1.70;;;;;;;;;;5155511;27;20274;-64
2021/12/19 00:58:38;;;;;;;1.97;1.87;;;;;;;;;;5155576;27;20406;-64
2021/12/19 01:01:25;;;;;;;1.80;1.70;;;;;;;;;;5151510;27;20348;-64
2021/12/19 01:04:15;;;;;;;1.93;1.83;;;;;;;;;;5152166;27;20225;-64
2021/12/19 01:07:03;;;;;;;2.10;2.00;;;;;;;;;;5165580;27;20287;-63
2021/12/19 01:09:51;;;;;;;2.03;1.90;;;;;;;;;;5158645;27;20350;-64
2021/12/19 01:12:38;;;;;;;2.23;2.10;;;;;;;;;;5146192;27;20238;-64
2021/12/19 01:15:25;;;;;;;1.90;1.80;;;;;;;;;;5137834;27;20206;-64
2021/12/19 01:18:13;;;;;;;2.20;2.10;;;;;;;;;;5162382;27;20252;-64
2021/12/19 01:21:00;;;;;;;1.90;1.80;;;;;;;;;;5156542;27;20213;-63
2021/12/19 01:23:48;;;;;;;2.10;2.00;;;;;;;;;;5149025;27;20225;-64
2021/12/19 01:26:35;;;;;;;1.90;1.80;;;;;;;;;;5160104;27;20204;-64
2021/12/19 01:29:22;;;;;;;2.20;2.07;;;;;;;;;;5150685;27;20219;-64
2021/12/19 01:32:09;;;;;;;2.13;2.03;;;;;;;;;;5165856;27;20297;-64
2021/12/19 01:34:56;;;;;;;2.10;2.00;;;;;;;;;;5159724;27;20257;-65
2021/12/19 01:37:43;;;;;;;1.80;1.70;;;;;;;;;;5155976;27;20309;-64
2021/12/19 01:40:31;;;;;;;2.10;1.97;;;;;;;;;;5170318;27;20231;-64
2021/12/19 01:43:24;;;;;;;1.90;1.80;;;;;;;;;;5148689;27;20241;-64
2021/12/19 01:46:11;;;;;;;1.83;1.73;;;;;;;;;;5157681;27;20239;-64
2021/12/19 01:48:58;;;;;;;1.80;1.70;;;;;;;;;;5152743;27;20297;-64
2021/12/19 01:51:45;;;;;;;1.90;1.80;;;;;;;;;;5154083;27;20217;-63
2021/12/19 01:54:32;;;;;;;1.80;1.70;;;;;;;;;;5164070;27;20300;-64
2021/12/19 01:57:22;;;;;;;1.90;1.80;;;;;;;;;;5159370;27;20238;-64
2021/12/19 02:00:18;;;;;;;1.90;1.80;;;;;;;;;;5151597;27;20209;-63
2021/12/19 02:03:06;;;;;;;1.80;1.70;;;;;;;;;;5153866;27;20618;-63
2021/12/19 02:05:53;;;;;;;1.90;1.80;;;;;;;;;;5150007;27;20327;-64
2021/12/19 02:08:41;;;;;;;1.80;1.70;;;;;;;;;;5150556;27;20298;-64
2021/12/19 02:11:28;;;;;;;1.57;1.50;;;;;;;;;;5150730;27;20261;-64
2021/12/19 02:14:16;;;;;;;1.73;1.63;;;;;;;;;;5150797;27;20289;-63
2021/12/19 02:17:04;;;;;;;1.70;1.60;;;;;;;;;;5150377;27;20229;-63
2021/12/19 02:19:51;;;;;;;2.00;1.90;;;;;;;;;;5134158;27;20252;-64
2021/12/19 02:22:39;;;;;;;1.80;1.70;;;;;;;;;;5161887;27;20687;-64
2021/12/19 02:25:27;;;;;;;1.90;1.80;;;;;;;;;;5155238;27;20744;-64
2021/12/19 02:28:14;;;;;;;1.50;1.50;;;;;;;;;;5167171;27;20254;-64
2021/12/19 02:31:01;;;;;;;2.13;2.03;;;;;;;;;;5158778;27;20300;-64
2021/12/19 02:34:00;;;;;;;1.90;1.80;;;;;;;;;;5148612;27;20270;-64
2021/12/19 02:36:56;;;;;;;1.80;1.70;;;;;;;;;;5162793;27;20278;-64
2021/12/19 02:40:07;;;;;;;2.17;2.07;;;;;;;;;;5158952;27;20206;-64
2021/12/19 02:49:05;;;;;;;1.77;1.70;;;;;;;;;;5150117;27;20293;-66
2021/12/19 02:51:52;;;;;;;1.47;1.47;;;;;;;;;;5147155;27;20255;-64
2021/12/19 02:54:39;;;;;;;1.60;1.60;;;;;;;;;;5149817;27;20197;-64
2021/12/19 02:57:28;;;;;;;1.70;1.60;;;;;;;;;;5163001;27;20234;-64
2021/12/19 03:00:21;;;;;;;1.80;1.70;;;;;;;;;;5150835;27;20213;-64
2021/12/19 03:03:08;;;;;;;1.80;1.70;;;;;;;;;;5162475;27;20234;-64
2021/12/19 03:05:55;;;;;;;1.60;1.50;;;;;;;;;;5160793;27;20216;-64
2021/12/19 03:08:45;;;;;;;1.73;1.63;;;;;;;;;;5150526;27;20207;-64
2021/12/19 03:17:58;;;;;;;1.63;1.57;;;;;;;;;;5149952;27;20305;-64
2021/12/19 03:20:45;;;;;;;1.30;1.30;;;;;;;;;;5138170;27;20549;-64
2021/12/19 03:23:32;;;;;;;1.30;1.30;;;;;;;;;;5151328;27;20244;-64
2021/12/19 03:26:19;;;;;;;1.37;1.27;;;;;;;;;;5150910;27;20210;-66
2021/12/19 03:29:06;;;;;;;1.60;1.50;;;;;;;;;;5160486;27;20293;-65
2021/12/19 03:31:54;;;;;;;1.50;1.50;;;;;;;;;;5160847;27;20332;-64
2021/12/19 03:34:41;;;;;;;1.30;1.30;;;;;;;;;;5148835;27;20600;-65
2021/12/19 03:37:28;;;;;;;1.27;1.27;;;;;;;;;;5149882;27;20779;-64
2021/12/19 03:40:22;;;;;;;1.37;1.30;;;;;;;;;;5161997;27;20353;-64
2021/12/19 03:43:12;;;;;;;1.23;1.23;;;;;;;;;;5148413;27;20201;-64
2021/12/19 03:45:59;;;;;;;1.30;1.30;;;;;;;;;;5134051;27;20207;-64
2021/12/19 03:48:47;;;;;;;1.47;1.47;;;;;;;;;;5160858;27;20245;-64
2021/12/19 03:51:34;;;;;;;1.20;1.20;;;;;;;;;;5149873;27;20885;-64
2021/12/19 03:54:21;;;;;;;1.30;1.30;;;;;;;;;;5134075;27;20552;-64
2021/12/19 03:57:08;;;;;;;1.30;1.30;;;;;;;;;;5158086;27;20212;-64
2021/12/19 03:59:55;;;;;;;1.07;1.00;;;;;;;;;;5154648;27;20978;-64
2021/12/19 04:02:42;;;;;;;1.60;1.50;;;;;;;;;;5162012;27;20256;-64
2021/12/19 04:05:31;;;;;;;1.00;1.00;;;;;;;;;;5153349;27;20316;-64
2021/12/19 04:08:19;;;;;;;1.30;1.20;;;;;;;;;;5142970;27;20217;-64
2021/12/19 04:11:06;;;;;;;1.07;1.07;;;;;;;;;;5150951;27;20433;-64
2021/12/19 04:13:53;;;;;;;1.07;1.07;;;;;;;;;;5150047;27;20301;-64
2021/12/19 04:16:42;;;;;;;1.47;1.37;;;;;;;;;;5154430;27;20685;-64
2021/12/19 04:19:30;;;;;;;1.50;1.40;;;;;;;;;;5151824;27;20223;-64
2021/12/19 04:22:18;;;;;;;1.17;1.17;;;;;;;;;;5154967;27;20211;-64
2021/12/19 04:25:06;;;;;;;1.07;1.07;;;;;;;;;;5163973;27;20335;-64
2021/12/19 04:27:53;;;;;;;1.67;1.50;;;;;;;;;;5150857;27;20292;-64
2021/12/19 04:30:40;;;;;;;1.30;1.20;;;;;;;;;;5149425;27;20245;-64
2021/12/19 04:33:28;;;;;;;1.43;1.43;;;;;;;;;;5148110;27;20247;-66
2021/12/19 04:36:22;;;;;;;1.47;1.30;;;;;;;;;;5161027;27;20283;-64
2021/12/19 04:39:33;;;;;;;1.47;1.37;;;;;;;;;;5151636;27;20214;-64
2021/12/19 04:54:48;;;;;;;2.00;1.80;;;;;;;;;;5141597;27;20300;-64
2021/12/19 04:57:41;;;;;;;1.93;1.73;;;;;;;;;;5151983;27;20241;-64
2021/12/19 05:00:33;;;;;;;1.80;1.70;;;;;;;;;;5150639;27;20216;-64
2021/12/19 05:03:30;;;;;;;2.50;1.50;;;;;;;;;;5137172;27;20220;-64
2021/12/19 05:06:32;;;;;;;2.00;1.80;;;;;;;;;;5163532;27;20208;-64
2021/12/19 05:15:31;;;;;;;2.37;1.80;;;;;;;;;;5169633;27;20283;-64
2021/12/19 05:18:21;;;;;;;2.53;2.00;;;;;;;;;;5154188;27;20242;-64
2021/12/19 05:21:14;;;;;;;2.63;2.40;;;;;;;;;;5161136;27;20205;-64
2021/12/19 05:27:05;;;;;;;2.33;1.93;;;;;;;;;;5148748;27;20205;-64
2021/12/19 05:29:53;;;;;;;2.20;2.10;;;;;;;;;;5150326;27;20671;-64
2021/12/19 05:32:41;;;;;;;2.40;2.20;;;;;;;;;;5150397;27;20229;-64
2021/12/19 05:35:48;;;;;;;2.37;1.97;;;;;;;;;;5152672;27;20188;-64
2021/12/19 05:47:51;;;;;;;2.00;1.90;;;;;;;;;;5150350;27;20672;-64
2021/12/19 05:50:39;;;;;;;2.27;2.13;;;;;;;;;;5138104;27;20689;-64
2021/12/19 05:53:26;;;;;;;1.90;1.80;;;;;;;;;;5150559;27;20231;-64
2021/12/19 05:56:13;;;;;;;2.53;2.33;;;;;;;;;;5148452;27;20225;-64
2021/12/19 05:59:00;;;;;;;2.07;1.90;;;;;;;;;;5136098;27;20666;-64
2021/12/19 06:01:47;;;;;;;1.90;1.80;;;;;;;;;;5159199;27;20236;-63
2021/12/19 06:04:35;;;;;;;1.90;1.80;;;;;;;;;;5143991;27;20236;-65
2021/12/19 06:07:22;;;;;;;2.03;1.93;;;;;;;;;;5150679;27;20244;-65
2021/12/19 06:10:10;;;;;;;2.30;2.10;;;;;;;;;;5145029;27;20282;-65
2021/12/19 06:12:59;;;;;;;2.10;1.90;;;;;;;;;;5145584;27;20312;-64
2021/12/19 06:15:50;;;;;;;2.07;1.97;;;;;;;;;;5168325;27;20277;-65
2021/12/19 06:18:37;;;;;;;2.00;1.90;;;;;;;;;;5153661;27;20196;-64
2021/12/19 06:21:25;;;;;;;1.83;1.73;;;;;;;;;;5150649;27;20647;-64
2021/12/19 06:24:12;;;;;;;1.90;1.80;;;;;;;;;;5149589;27;20285;-64
2021/12/19 06:26:59;;;;;;;1.97;1.87;;;;;;;;;;5148540;27;20208;-64
2021/12/19 06:29:46;;;;;;;1.83;1.73;;;;;;;;;;5150913;27;20201;-66
2021/12/19 06:32:33;;;;;;;1.70;1.60;;;;;;;;;;5156008;27;20424;-64
2021/12/19 06:35:22;;;;;;;1.60;1.50;;;;;;;;;;5148430;27;20236;-65
2021/12/19 06:38:12;;;;;;;1.70;1.60;;;;;;;;;;5149696;27;20572;-66
2021/12/19 06:40:59;;;;;;;1.80;1.70;;;;;;;;;;5162325;27;20750;-64
2021/12/19 06:43:47;;;;;;;2.40;2.20;;;;;;;;;;5148270;27;20205;-65
2021/12/19 06:46:34;;;;;;;2.20;2.00;;;;;;;;;;5134441;27;20207;-64
2021/12/19 06:49:21;;;;;;;1.73;1.63;;;;;;;;;;5159732;27;20196;-64
2021/12/19 06:52:08;;;;;;;2.27;2.17;;;;;;;;;;5151720;27;20314;-64
2021/12/19 06:54:56;;;;;;;1.90;1.80;;;;;;;;;;5143747;27;20338;-65
2021/12/19 06:57:43;;;;;;;1.97;1.87;;;;;;;;;;5158033;27;20687;-64
2021/12/19 07:00:30;;;;;;;1.93;1.83;;;;;;;;;;5156071;27;20234;-64
2021/12/19 07:03:23;;;;;;;2.37;2.17;;;;;;;;;;5168159;27;20605;-65
2021/12/19 07:06:10;;;;;;;2.20;2.10;;;;;;;;;;5148490;27;20232;-64
2021/12/19 07:08:57;;;;;;;1.73;1.63;;;;;;;;;;5147238;27;20356;-64
2021/12/19 07:11:45;;;;;;;2.17;2.07;;;;;;;;;;5147944;27;20201;-64
2021/12/19 07:14:32;;;;;;;2.17;2.07;;;;;;;;;;5154864;27;20270;-64
2021/12/19 07:17:19;;;;;;;1.90;1.80;;;;;;;;;;5158994;27;20261;-64
2021/12/19 07:20:07;;;;;;;2.50;2.40;;;;;;;;;;5167678;27;20264;-64
2021/12/19 07:22:54;;;;;;;2.17;2.07;;;;;;;;;;5147528;27;20338;-64
2021/12/19 07:25:42;;;;;;;1.80;1.70;;;;;;;;;;5150072;27;20288;-64
2021/12/19 07:28:30;;;;;;;2.17;2.07;;;;;;;;;;5156074;27;20287;-64
2021/12/19 07:31:18;;;;;;;2.23;2.03;;;;;;;;;;5146928;27;20239;-64
2021/12/19 07:34:06;;;;;;;2.30;2.20;;;;;;;;;;5137053;27;20695;-64
2021/12/19 07:36:54;;;;;;;2.40;2.30;;;;;;;;;;5154488;27;20232;-64
2021/12/19 07:39:52;;;;;;;2.53;2.33;;;;;;;;;;5153077;27;20216;-65
2021/12/19 07:42:39;;;;;;;2.20;2.10;;;;;;;;;;5142123;27;20297;-65
2021/12/19 07:45:27;;;;;;;2.20;2.10;;;;;;;;;;5160936;27;20299;-65
2021/12/19 07:48:14;;;;;;;2.63;2.43;;;;;;;;;;5152080;27;20289;-64
2021/12/19 07:51:01;;;;;;;2.60;2.40;;;;;;;;;;5137932;27;20208;-64
2021/12/19 07:53:48;;;;;;;2.50;2.40;;;;;;;;;;5164172;27;20703;-64
2021/12/19 07:56:35;;;;;;;2.50;2.40;;;;;;;;;;5154812;27;20705;-64
2021/12/19 07:59:22;;;;;;;2.70;2.50;;;;;;;;;;5136406;27;20291;-64
2021/12/19 08:02:11;;;;;;;2.40;2.30;;;;;;;;;;5158402;27;20316;-64
2021/12/19 08:04:58;;;;;;;2.23;2.13;;;;;;;;;;5145744;27;20221;-64
2021/12/19 08:07:48;;;;;;;2.03;1.93;;;;;;;;;;5152608;27;20287;-64
2021/12/19 08:13:40;;;;;;;2.30;2.20;;;;;;;;;;5151672;27;20263;-64
2021/12/19 08:16:27;;;;;;;2.00;1.90;;;;;;;;;;5153260;27;20209;-65
2021/12/19 08:19:15;;;;;;;2.20;2.10;;;;;;;;;;5158942;27;20213;-64
2021/12/19 08:22:02;;;;;;;1.93;1.83;;;;;;;;;;5161207;27;20256;-64
2021/12/19 08:24:50;;;;;;;1.60;1.60;;;;;;;;;;5170246;27;20219;-64
2021/12/19 08:27:37;;;;;;;1.80;1.70;;;;;;;;;;5154649;27;20200;-64
2021/12/19 08:30:25;;;;;;;1.73;1.63;;;;;;;;;;5155516;27;20708;-65
2021/12/19 08:33:12;;;;;;;1.97;1.87;;;;;;;;;;5168337;27;20303;-65
2021/12/19 08:36:01;;;;;;;1.60;1.50;;;;;;;;;;5151940;27;20212;-64
2021/12/19 08:38:49;;;;;;;1.37;1.37;;;;;;;;;;5152698;27;20206;-65
2021/12/19 08:41:36;;;;;;;1.93;1.83;;;;;;;;;;5167053;27;20201;-64
2021/12/19 08:44:23;;;;;;;1.90;1.80;;;;;;;;;;5150279;27;20247;-64
2021/12/19 08:47:10;;;;;;;1.67;1.60;;;;;;;;;;5161646;27;20258;-64
2021/12/19 08:49:57;;;;;;;1.80;1.70;;;;;;;;;;5163953;27;20306;-64
2021/12/19 08:52:45;;;;;;;1.70;1.60;;;;;;;;;;5147886;27;20362;-64
2021/12/19 08:55:32;;;;;;;2.30;2.20;;;;;;;;;;5135461;27;20213;-64
2021/12/19 08:58:19;;;;;;;1.90;1.80;;;;;;;;;;5162192;27;20641;-64
2021/12/19 09:01:06;;;;;;;2.30;2.13;;;;;;;;;;5152821;27;20282;-72
2021/12/19 09:03:53;;;;;;;2.17;2.07;;;;;;;;;;5146199;27;20253;-64
2021/12/19 09:06:40;;;;;;;2.43;2.33;;;;;;;;;;5160239;27;20293;-64
2021/12/19 09:09:29;;;;;;;2.40;2.20;;;;;;;;;;5155418;27;20330;-66
2021/12/19 09:12:16;;;;;;;2.30;2.20;;;;;;;;;;5145145;27;20299;-65
2021/12/19 09:15:05;;;;;;;2.73;2.53;;;;;;;;;;5151660;27;20332;-64
2021/12/19 09:17:52;;;;;;;2.40;2.20;;;;;;;;;;5149330;27;20217;-64
2021/12/19 09:20:39;;;;;;;2.37;2.17;;;;;;;;;;5161740;27;20756;-64
2021/12/19 09:23:27;;;;;;;2.10;1.90;;;;;;;;;;5152570;27;20202;-66
2021/12/19 09:26:15;;;;;;;2.10;2.00;;;;;;;;;;5150143;27;20207;-65
2021/12/19 09:29:02;;;;;;;2.13;2.03;;;;;;;;;;5151111;27;20204;-65
2021/12/19 09:31:49;;;;;;;2.20;1.47;;;;;;;;;;5151120;27;20206;-64
2021/12/19 09:34:36;;;;;;;2.00;1.90;;;;;;;;;;5149313;27;20249;-65
2021/12/19 09:37:23;;;;;;;1.77;1.67;;;;;;;;;;5153141;27;20613;-64
2021/12/19 09:40:17;;;;;;;1.73;1.63;;;;;;;;;;5150187;27;20211;-64
2021/12/19 09:43:09;;;;;;;2.00;1.80;;;;;;;;;;5149168;27;20607;-65
2021/12/19 09:45:59;;;;;;;1.70;1.60;;;;;;;;;;5164078;27;20568;-64
2021/12/19 09:48:48;;;;;;;1.70;1.60;;;;;;;;;;5151990;27;20212;-64
2021/12/19 09:51:36;;;;;;;1.07;1.07;;;;;;;;;;5165565;27;20313;-65
2021/12/19 09:54:23;;;;;;;1.20;1.20;;;;;;;;;;5157342;27;20278;-65
2021/12/19 09:57:10;;;;;;;1.40;1.30;;;;;;;;;;5151264;27;20330;-66
2021/12/19 09:59:58;;;;;;;0.97;0.97;;;;;;;;;;5134905;27;20241;-64
2021/12/19 10:02:46;;;;;;;1.03;1.03;;;;;;;;;;5151683;27;20244;-65
2021/12/19 10:05:33;;;;;;;1.10;1.10;;;;;;;;;;5149096;27;20229;-64
2021/12/19 10:08:24;;;;;;;1.17;1.17;;;;;;;;;;5134058;27;20289;-65
2021/12/19 10:11:31;;;;;;;1.20;0.90;;;;;;;;;;5146887;27;20230;-65
2021/12/19 10:14:29;;;;;;;1.23;1.13;;;;;;;;;;5143535;27;20224;-64
2021/12/19 10:17:19;;;;;;;1.40;1.30;;;;;;;;;;5134891;27;20286;-64
2021/12/19 10:20:08;;;;;;;1.30;1.20;;;;;;;;;;5162163;27;20201;-64
2021/12/19 10:22:56;;;;;;;1.20;1.10;;;;;;;;;;5152932;27;20293;-64
2021/12/19 10:25:44;;;;;;;1.10;1.10;;;;;;;;;;5139130;27;20220;-65
2021/12/19 10:28:31;;;;;;;1.07;1.07;;;;;;;;;;5150271;27;20288;-65
2021/12/19 10:31:19;;;;;;;1.30;1.20;;;;;;;;;;5143893;27;20240;-65
2021/12/19 10:34:22;;;;;;;0.70;0.70;;;;;;;;;;5169965;27;20699;-65
2021/12/19 10:37:09;;;;;;;1.00;0.90;;;;;;;;;;5159578;27;20239;-65
2021/12/19 10:40:01;;;;;;;1.70;1.10;;;;;;;;;;5155057;27;20691;-66
2021/12/19 10:42:53;;;;;;;0.80;0.80;;;;;;;;;;5156561;27;20348;-64
2021/12/19 10:45:45;;;;;;;0.70;0.70;;;;;;;;;;5157664;27;20206;-65
2021/12/19 10:48:36;;;;;;;1.00;1.00;;;;;;;;;;5151983;27;20665;-65
2021/12/19 10:51:25;;;;;;;1.00;0.90;;;;;;;;;;5159376;27;20212;-65
2021/12/19 10:54:11;;;;;;;1.00;1.00;;;;;;;;;;5158449;27;20223;-64
2021/12/19 10:57:07;;;;;;;0.77;0.77;;;;;;;;;;5157579;27;20284;-66
2021/12/19 10:59:54;;;;;;;0.73;0.73;;;;;;;;;;5161839;27;20215;-66
2021/12/19 11:02:42;;;;;;;0.70;0.70;;;;;;;;;;5152969;27;20276;-66
2021/12/19 11:05:35;;;;;;;0.63;0.63;;;;;;;;;;5157278;27;20298;-66
2021/12/19 11:08:30;;;;;;;0.70;0.70;;;;;;;;;;5168086;27;20204;-65
2021/12/19 11:11:34;;;;;;;0.63;0.63;;;;;;;;;;5149631;27;20291;-65
2021/12/19 11:14:24;;;;;;;0.60;0.60;;;;;;;;;;5146239;27;20376;-66
2021/12/19 11:17:14;;;;;;;0.73;0.67;;;;;;;;;;5131132;27;20209;-64
2021/12/19 11:20:01;;;;;;;2.67;2.07;;;;;;;;;;5158103;27;20257;-65
2021/12/19 11:22:48;;;;;;;3.00;2.10;;;;;;;;;;5154082;27;20679;-65
2021/12/19 11:25:37;;;;;;;2.00;1.90;;;;;;;;;;5165923;27;20305;-64
2021/12/19 11:28:24;;;;;;;3.10;2.07;;;;;;;;;;5152281;27;20554;-65
2021/12/19 11:31:13;;;;;;;1.63;1.53;;;;;;;;;;5139765;27;20239;-64
2021/12/19 11:34:15;;;;;;;1.37;1.37;;;;;;;;;;5160340;27;20705;-64
2021/12/19 11:37:10;;;;;;;1.40;1.30;;;;;;;;;;5158906;27;20266;-64
2021/12/19 11:39:58;;;;;;;1.33;1.33;;;;;;;;;;5153542;27;20244;-64
2021/12/19 11:42:46;;;;;;;1.20;1.20;;;;;;;;;;5157981;27;20209;-64
2021/12/19 11:45:38;;;;;;;1.20;1.20;;;;;;;;;;5148473;27;20212;-64
2021/12/19 11:48:29;;;;;;;1.20;1.20;;;;;;;;;;5138484;27;20662;-65
2021/12/19 11:51:22;;;;;;;1.20;1.20;;;;;;;;;;5168095;27;20242;-65
2021/12/19 11:54:16;;;;;;;1.00;1.00;;;;;;;;;;5150632;27;20226;-65
2021/12/19 11:57:07;;;;;;;1.30;1.30;;;;;;;;;;5145924;27;20212;-65
2021/12/19 12:00:25;;;;;;;1.10;1.10;;;;;;;;;;5150732;27;20214;-64
2021/12/19 12:03:25;;;;;;;0.90;0.90;;;;;;;;;;5159480;27;20316;-65
2021/12/19 12:06:47;;;;;;;0.90;0.90;;;;;;;;;;5144147;27;20410;-64
2021/12/19 12:09:39;;;;;;;0.60;0.60;;;;;;;;;;5146941;27;20287;-65
2021/12/19 12:12:35;;;;;;;0.73;0.73;;;;;;;;;;5150285;27;20212;-65
2021/12/19 12:15:32;;;;;;;0.70;0.70;;;;;;;;;;5149439;27;20251;-65
2021/12/19 12:18:30;;;;;;;0.60;0.60;;;;;;;;;;5156689;27;20316;-64
2021/12/19 12:21:29;;;;;;;0.70;0.70;;;;;;;;;;5158439;27;20566;-66
2021/12/19 12:24:18;;;;;;;0.93;0.90;;;;;;;;;;5159668;27;20205;-65
2021/12/19 12:27:05;;;;;;;0.70;0.70;;;;;;;;;;5156977;27;20214;-64
2021/12/19 12:29:52;;;;;;;0.70;0.70;;;;;;;;;;5171268;27;20282;-65
2021/12/19 12:32:41;;;;;;;0.70;0.70;;;;;;;;;;5154933;27;20241;-65
2021/12/19 12:35:31;;;;;;;0.50;0.50;;;;;;;;;;5158060;27;20258;-66
2021/12/19 12:38:20;;;;;;;0.80;0.80;;;;;;;;;;5168851;27;20210;-65
2021/12/19 12:41:15;;;;;;;1.10;1.00;;;;;;;;;;5152005;27;20198;-65
2021/12/19 12:44:06;;;;;;;0.60;0.60;;;;;;;;;;5155169;27;20665;-65
2021/12/19 12:46:53;;;;;;;0.50;0.50;;;;;;;;;;5163511;27;20794;-65
2021/12/19 12:49:41;;;;;;;0.70;0.63;;;;;;;;;;5152851;27;20219;-64
2021/12/19 12:52:28;;;;;;;0.50;0.50;;;;;;;;;;5162317;27;20228;-64
2021/12/19 12:55:15;;;;;;;0.77;0.63;;;;;;;;;;5163692;27;20668;-65
2021/12/19 12:58:16;;;;;;;0.50;0.50;;;;;;;;;;5149940;27;20212;-65
2021/12/19 13:01:17;;;;;;;0.60;0.60;;;;;;;;;;5138963;27;20685;-65
2021/12/19 13:04:10;;;;;;;0.40;0.40;;;;;;;;;;5168554;27;20303;-64
2021/12/19 13:07:01;;;;;;;0.50;0.50;;;;;;;;;;5153011;27;20240;-66
2021/12/19 13:09:50;;;;;;;0.60;0.60;;;;;;;;;;5156450;27;20209;-66
2021/12/19 13:12:39;;;;;;;0.53;0.53;;;;;;;;;;5152359;27;20208;-64
2021/12/19 13:15:26;;;;;;;0.50;0.50;;;;;;;;;;5152439;27;20763;-65
2021/12/19 13:18:13;;;;;;;0.50;0.50;;;;;;;;;;5154808;27;20617;-65
2021/12/19 13:21:02;;;;;;;0.60;0.50;;;;;;;;;;5165734;27;20203;-65
2021/12/19 13:24:02;;;;;;;0.30;0.30;;;;;;;;;;5150880;27;20211;-65
2021/12/19 13:26:49;;;;;;;0.60;0.60;;;;;;;;;;5136358;27;20204;-65
2021/12/19 13:29:37;;;;;;;0.37;0.37;;;;;;;;;;5165047;27;20284;-65
2021/12/19 13:32:29;;;;;;;0.33;0.33;;;;;;;;;;5151775;27;20543;-65
2021/12/19 13:35:25;;;;;;;0.47;0.43;;;;;;;;;;5151965;27;20306;-65
2021/12/19 13:38:14;;;;;;;0.30;0.30;;;;;;;;;;5162882;27;20733;-65
2021/12/19 13:41:05;;;;;;;0.40;0.40;;;;;;;;;;5152166;27;20231;-65
2021/12/19 13:43:53;;;;;;;0.30;0.30;;;;;;;;;;5152606;27;20747;-65
2021/12/19 13:46:39;;;;;;;0.60;0.60;;;;;;;;;;5161131;27;20206;-64
2021/12/19 13:49:27;;;;;;;0.37;0.37;;;;;;;;;;5155333;27;20697;-65
2021/12/19 13:52:14;;;;;;;1.43;0.30;;;;;;;;;;5157438;27;20286;-65
2021/12/19 13:55:06;;;;;;;0.30;0.30;;;;;;;;;;5153761;27;20555;-65
2021/12/19 13:58:08;;;;;;;0.30;0.30;;;;;;;;;;5150494;27;20670;-64
2021/12/19 14:00:56;;;;;;;0.40;0.40;;;;;;;;;;5136995;27;20350;-65
2021/12/19 14:03:47;;;;;;;0.40;0.40;;;;;;;;;;5150162;27;20715;-64
2021/12/19 14:06:36;;;;;;;0.37;0.20;;;;;;;;;;5148684;27;20206;-64
2021/12/19 14:09:24;;;;;;;1.03;0.30;;;;;;;;;;5132848;27;20204;-65
2021/12/19 14:12:15;;;;;;;0.30;0.30;;;;;;;;;;5149142;27;20286;-65
2021/12/19 14:15:11;;;;;;;0.40;0.40;;;;;;;;;;5150327;27;20308;-65
2021/12/19 14:17:58;;;;;;;0.30;0.30;;;;;;;;;;5159827;27;20293;-65
2021/12/19 14:20:45;;;;;;;0.20;0.20;;;;;;;;;;5153774;27;20237;-64
2021/12/19 14:23:39;;;;;;;0.23;0.23;;;;;;;;;;5144976;27;20229;-65
2021/12/19 14:26:26;;;;;;;0.20;0.20;;;;;;;;;;5160901;27;20255;-66
2021/12/19 14:29:25;;;;;;;0.20;0.20;;;;;;;;;;5150811;27;20212;-65
2021/12/19 14:32:15;;;;;;;0.20;0.20;;;;;;;;;;5147872;27;20213;-65
2021/12/19 14:35:06;;;;;;;0.30;0.30;;;;;;;;;;5133416;27;20218;-65
2021/12/19 14:37:56;;;;;;;0.20;0.20;;;;;;;;;;5157046;27;20229;-65
2021/12/19 14:40:43;;;;;;;1.17;0.30;;;;;;;;;;5148605;27;20339;-65
2021/12/19 14:43:32;;;;;;;0.20;0.20;;;;;;;;;;5152043;27;20198;-65
2021/12/19 14:46:27;;;;;;;0.30;0.30;;;;;;;;;;5159072;27;20287;-65
2021/12/19 14:49:15;;;;;;;0.40;0.40;;;;;;;;;;5150629;27;20209;-64
2021/12/19 14:52:02;;;;;;;1.07;0.20;;;;;;;;;;5162955;27;20296;-65
2021/12/19 14:54:49;;;;;;;0.30;0.30;;;;;;;;;;5146573;27;20287;-64
2021/12/19 14:57:36;;;;;;;0.60;0.60;;;;;;;;;;5149507;27;20209;-65
2021/12/19 15:00:23;;;;;;;0.60;0.60;;;;;;;;;;5155556;27;20287;-65
2021/12/19 15:03:10;;;;;;;0.70;0.60;;;;;;;;;;5155104;27;20708;-65
2021/12/19 15:06:00;;;;;;;0.53;0.53;;;;;;;;;;5162149;27;20287;-65
2021/12/19 15:08:49;;;;;;;0.70;0.70;;;;;;;;;;5161221;27;20656;-64
2021/12/19 15:11:38;;;;;;;0.60;0.60;;;;;;;;;;5146217;27;20236;-64
2021/12/19 15:14:25;;;;;;;0.70;0.70;;;;;;;;;;5151012;27;20202;-66
2021/12/19 15:17:12;;;;;;;0.50;0.50;;;;;;;;;;5157246;27;20209;-65
2021/12/19 15:19:59;;;;;;;0.40;0.40;;;;;;;;;;5149477;27;20358;-64
2021/12/19 15:22:47;;;;;;;1.27;0.50;;;;;;;;;;5156613;27;20297;-64
2021/12/19 15:25:34;;;;;;;0.87;0.67;;;;;;;;;;5153777;27;20237;-64
2021/12/19 15:28:23;;;;;;;0.40;0.40;;;;;;;;;;5147422;27;20679;-65
2021/12/19 15:31:10;;;;;;;0.37;0.37;;;;;;;;;;5161823;27;20663;-64
2021/12/19 15:33:57;;;;;;;0.37;0.37;;;;;;;;;;5155503;27;20206;-66
2021/12/19 15:36:44;;;;;;;0.53;0.53;;;;;;;;;;5148695;27;20600;-64
2021/12/19 15:39:33;;;;;;;1.13;0.50;;;;;;;;;;5149667;27;20211;-65
2021/12/19 15:42:20;;;;;;;0.93;0.50;;;;;;;;;;5148642;27;20279;-64
2021/12/19 15:45:08;;;;;;;0.57;0.57;;;;;;;;;;5151419;27;20284;-65
2021/12/19 15:47:56;;;;;;;0.40;0.40;;;;;;;;;;5155813;27;20212;-65
2021/12/19 15:50:42;;;;;;;0.33;0.33;;;;;;;;;;5149082;27;20239;-64
2021/12/19 15:53:29;;;;;;;0.57;0.57;;;;;;;;;;5147174;27;20682;-64
2021/12/19 15:56:18;;;;;;;0.40;0.40;;;;;;;;;;5155922;27;20607;-65
2021/12/19 15:59:05;;;;;;;0.50;0.50;;;;;;;;;;5157197;27;20288;-64
2021/12/19 16:01:53;;;;;;;0.57;0.57;;;;;;;;;;5158740;27;20269;-64
2021/12/19 16:04:40;;;;;;;0.50;0.50;;;;;;;;;;5166648;27;20349;-65
2021/12/19 16:07:26;;;;;;;0.53;0.53;;;;;;;;;;5152580;27;20240;-65
2021/12/19 16:10:13;;;;;;;0.53;0.50;;;;;;;;;;5161592;27;20248;-66
2021/12/19 16:13:02;;;;;;;0.50;0.50;;;;;;;;;;5160900;27;20201;-65
2021/12/19 16:15:49;;;;;;;0.47;0.47;;;;;;;;;;5151467;27;20702;-64
2021/12/19 16:18:36;;;;;;;0.40;0.40;;;;;;;;;;5153261;27;20675;-64
2021/12/19 16:21:23;;;;;;;0.30;0.30;;;;;;;;;;5154007;27;20220;-65
2021/12/19 16:24:10;;;;;;;0.40;0.40;;;;;;;;;;5152448;27;20684;-64
2021/12/19 16:26:58;;;;;;;2.10;0.80;;;;;;;;;;5144464;27;20310;-65
2021/12/19 16:29:46;;;;;;;0.83;0.83;;;;;;;;;;5160664;27;20204;-64
2021/12/19 16:32:33;;;;;;;0.70;0.70;;;;;;;;;;5152212;27;20643;-64
2021/12/19 16:35:20;;;;;;;1.57;0.80;;;;;;;;;;5166075;27;20220;-64
2021/12/19 16:38:08;;;;;;;1.03;1.03;;;;;;;;;;5160318;27;20712;-64
2021/12/19 16:41:01;;;;;;;1.07;1.07;;;;;;;;;;5156160;27;20738;-64
2021/12/19 16:43:50;;;;;;;3.17;1.00;;;;;;;;;;5150718;27;20208;-64
2021/12/19 16:46:40;;;;;;;1.00;1.00;;;;;;;;;;5159097;27;20283;-64
2021/12/19 16:49:27;;;;;;;0.80;0.80;;;;;;;;;;5159034;27;20213;-64
2021/12/19 16:52:14;;;;;;;0.90;0.90;;;;;;;;;;5167543;27;20341;-65
2021/12/19 16:55:02;;;;;;;1.10;1.10;;;;;;;;;;5151336;27;20245;-64
2021/12/19 16:57:49;;;;;;;0.80;0.80;;;;;;;;;;5159096;27;20201;-64
2021/12/19 17:00:36;;;;;;;0.90;0.90;;;;;;;;;;5167086;27;20203;-64
2021/12/19 17:03:25;;;;;;;0.90;0.90;;;;;;;;;;5154176;27;20326;-64
2021/12/19 17:06:11;;;;;;;1.33;0.73;;;;;;;;;;5161689;27;20314;-64
2021/12/19 17:08:58;;;;;;;0.60;0.60;;;;;;;;;;5165734;27;20272;-64
2021/12/19 17:11:51;;;;;;;1.00;1.00;;;;;;;;;;5150673;27;20217;-65
2021/12/19 17:14:39;;;;;;;0.63;0.63;;;;;;;;;;5156041;27;20728;-65
2021/12/19 17:17:26;;;;;;;0.70;0.70;;;;;;;;;;5164646;27;20208;-64
2021/12/19 17:20:14;;;;;;;0.70;0.70;;;;;;;;;;5153946;27;20234;-64
2021/12/19 17:23:01;;;;;;;0.70;0.70;;;;;;;;;;5164166;27;20209;-64
2021/12/19 17:25:48;;;;;;;2.73;0.60;;;;;;;;;;5157645;27;20196;-64
2021/12/19 17:28:35;;;;;;;0.70;0.70;;;;;;;;;;5149356;27;20701;-64
2021/12/19 17:31:22;;;;;;;0.90;0.90;;;;;;;;;;5162462;27;20285;-64
2021/12/19 17:34:10;;;;;;;0.57;0.57;;;;;;;;;;5161075;27;20217;-64
2021/12/19 17:37:01;;;;;;;0.60;0.60;;;;;;;;;;5155537;27;20661;-65
2021/12/19 17:39:48;;;;;;;0.47;0.47;;;;;;;;;;5163950;27;20212;-65
2021/12/19 17:42:37;;;;;;;1.30;0.60;;;;;;;;;;5157876;27;20355;-64
2021/12/19 17:45:26;;;;;;;0.40;0.40;;;;;;;;;;5158762;27;20292;-65
2021/12/19 17:48:14;;;;;;;0.80;0.80;;;;;;;;;;5166372;27;20205;-65